Time;durP1;ratioP1;P1;durP2;ratioP2;P2;SDS_P1;SDS_P2;PMS_P1;PMS_P2;Temp;Humidity;BMP_temperature;BMP_pressure;BME280_temperature;BME280_humidity;BME280_pressure;Samples;Min_cycle;Max_cycle;Signal;HPM_P1;HPM_P2
2022/10/19 00:02:26;;;;;;;27.57;10.80;;;15.50;99.90;;;;;;5071478;28;20477;-62
2022/10/19 00:04:53;;;;;;;35.60;11.33;;;15.50;99.90;;;;;;5061220;28;20473;-63
2022/10/19 00:07:20;;;;;;;27.70;10.10;;;;;;;;;;5070260;28;20478;-63
2022/10/19 00:09:46;;;;;;;26.03;9.90;;;15.50;99.90;;;;;;5068056;28;20470;-63
2022/10/19 00:12:13;;;;;;;37.07;11.60;;;15.60;99.90;;;;;;5072930;28;20986;-62
2022/10/19 00:14:42;;;;;;;55.93;14.30;;;;;;;;;;5073285;28;20487;-62
2022/10/19 00:17:09;;;;;;;53.47;17.53;;;;;;;;;;5068891;28;20475;-62
2022/10/19 00:19:35;;;;;;;33.33;10.03;;;15.70;99.90;;;;;;5072319;28;20463;-62
2022/10/19 00:22:02;;;;;;;34.77;15.30;;;;;;;;;;5073068;28;20490;-62
2022/10/19 00:24:29;;;;;;;33.07;12.27;;;;;;;;;;5072910;28;20874;-61
2022/10/19 00:26:56;;;;;;;47.40;16.43;;;15.90;99.90;;;;;;5068045;28;20470;-62
2022/10/19 00:29:23;;;;;;;46.43;16.13;;;;;;;;;;5068370;28;20485;-61
2022/10/19 00:31:52;;;;;;;37.97;14.53;;;;;;;;;;5081335;28;20486;-63
2022/10/19 00:34:19;;;;;;;69.43;16.63;;;;;;;;;;5074135;28;20506;-62
2022/10/19 00:36:46;;;;;;;37.80;16.20;;;;;;;;;;5066246;28;20959;-62
2022/10/19 00:39:15;;;;;;;39.00;15.70;;;;;;;;;;5071691;28;20478;-62
2022/10/19 00:41:42;;;;;;;32.37;13.00;;;16.10;99.90;;;;;;5073531;28;20493;-62
2022/10/19 00:44:43;;;;;;;50.10;20.33;;;16.20;99.90;;;;;;5072950;28;20955;-63
2022/10/19 00:47:11;;;;;;;45.03;18.50;;;16.30;99.90;;;;;;5069835;28;20965;-62
2022/10/19 00:49:41;;;;;;;49.93;16.57;;;16.30;99.90;;;;;;5069149;28;21278;-62
2022/10/19 00:52:12;;;;;;;46.27;16.03;;;16.40;99.90;;;;;;5073763;28;20569;-62
2022/10/19 00:54:41;;;;;;;34.10;14.73;;;;;;;;;;5062593;28;20478;-62
2022/10/19 00:57:09;;;;;;;48.10;18.90;;;16.50;99.90;;;;;;5070825;28;20479;-62
2022/10/19 00:59:38;;;;;;;40.17;16.40;;;16.50;99.90;;;;;;5060853;28;20633;-62
2022/10/19 01:02:06;;;;;;;39.47;19.07;;;16.60;99.90;;;;;;5070140;28;20489;-62
2022/10/19 01:04:37;;;;;;;50.57;17.40;;;16.50;99.90;;;;;;5074632;28;20577;-62
2022/10/19 01:07:06;;;;;;;57.70;25.07;;;16.60;99.90;;;;;;5072602;28;20516;-61
2022/10/19 01:09:34;;;;;;;85.80;22.90;;;;;;;;;;5072843;28;21675;-62
2022/10/19 01:12:07;;;;;;;105.43;25.53;;;16.70;99.90;;;;;;5076559;28;20811;-62
2022/10/19 01:14:47;;;;;;;59.03;18.70;;;16.80;99.90;;;;;;5073347;28;21219;-62
2022/10/19 01:17:21;;;;;;;52.87;18.53;;;;;;;;;;5064327;28;20482;-62
2022/10/19 01:20:15;;;;;;;55.10;17.50;;;16.80;99.90;;;;;;5076812;28;20485;-62
2022/10/19 01:22:59;;;;;;;38.90;15.77;;;16.80;99.90;;;;;;5061486;28;20985;-63
2022/10/19 01:25:36;;;;;;;38.83;16.97;;;;;;;;;;5058056;28;20491;-62
2022/10/19 01:28:15;;;;;;;51.03;21.33;;;16.90;99.90;;;;;;5070923;28;20519;-62
2022/10/19 01:30:48;;;;;;;41.40;16.17;;;;;;;;;;5050154;28;20906;-62
2022/10/19 01:33:27;;;;;;;46.10;17.57;;;16.90;99.90;;;;;;5067229;28;20477;-62
2022/10/19 01:35:58;;;;;;;45.10;18.40;;;;;;;;;;5073277;28;20474;-62
2022/10/19 01:38:27;;;;;;;42.60;17.67;;;;;;;;;;5072361;28;21123;-63
2022/10/19 01:40:57;;;;;;;46.73;18.67;;;16.70;99.90;;;;;;5066604;28;21091;-62
2022/10/19 01:43:33;;;;;;;53.93;19.47;;;16.60;99.90;;;;;;5072896;28;21030;-62
2022/10/19 01:46:09;;;;;;;57.17;22.77;;;16.60;99.90;;;;;;5061408;28;20481;-63
2022/10/19 01:48:41;;;;;;;57.30;19.20;;;16.50;99.90;;;;;;5076782;28;20489;-62
2022/10/19 01:51:13;;;;;;;70.33;22.57;;;16.50;99.90;;;;;;5071611;28;20490;-62
2022/10/19 01:53:42;;;;;;;64.17;20.00;;;;;;;;;;5072275;28;20466;-63
2022/10/19 01:56:10;;;;;;;78.77;25.27;;;16.50;99.90;;;;;;5069440;28;20700;-62
2022/10/19 01:58:39;;;;;;;43.77;16.50;;;16.40;99.90;;;;;;5070486;28;20494;-62
2022/10/19 02:01:09;;;;;;;84.87;22.23;;;;;;;;;;5066324;28;20488;-62
2022/10/19 02:03:37;;;;;;;79.33;17.27;;;;;;;;;;5068009;28;20482;-62
2022/10/19 02:06:06;;;;;;;96.63;21.27;;;16.20;99.90;;;;;;5069194;28;20501;-62
2022/10/19 02:08:39;;;;;;;51.13;15.50;;;16.10;99.90;;;;;;5068494;28;20867;-62
2022/10/19 02:11:06;;;;;;;68.60;18.60;;;16.10;99.90;;;;;;5052446;28;20479;-62
2022/10/19 02:13:34;;;;;;;40.37;14.80;;;16.10;99.90;;;;;;5065566;28;20478;-62
2022/10/19 02:16:05;;;;;;;45.23;15.90;;;16.10;99.90;;;;;;5069842;28;20543;-62
2022/10/19 02:18:34;;;;;;;89.67;14.63;;;;;;;;;;5071472;28;20482;-62
2022/10/19 02:21:02;;;;;;;109.33;20.17;;;;;;;;;;5070680;28;20489;-62
2022/10/19 02:23:29;;;;;;;37.90;14.97;;;16.20;99.90;;;;;;5074455;28;21378;-63
2022/10/19 02:25:56;;;;;;;80.87;17.27;;;16.20;99.90;;;;;;5074347;28;20509;-62
2022/10/19 02:28:24;;;;;;;89.10;18.30;;;;;;;;;;5072341;28;20490;-62
2022/10/19 02:30:51;;;;;;;39.73;16.47;;;16.20;99.90;;;;;;5068191;28;20603;-61
2022/10/19 02:33:18;;;;;;;33.77;14.03;;;16.20;99.90;;;;;;5074849;28;20470;-62
2022/10/19 02:35:46;;;;;;;42.67;15.50;;;12.30;99.90;;;;;;5073193;28;20997;-62
2022/10/19 02:38:16;;;;;;;32.73;15.33;;;;;;;;;;5075854;28;20474;-63
2022/10/19 02:40:48;;;;;;;31.00;14.13;;;16.10;99.90;;;;;;5072498;28;20575;-62
2022/10/19 02:43:20;;;;;;;59.53;16.03;;;16.10;99.90;;;;;;5081181;28;20449;-61
2022/10/19 02:45:52;;;;;;;44.33;14.73;;;16.00;99.90;;;;;;5073996;28;20477;-62
2022/10/19 02:48:21;;;;;;;56.27;16.20;;;;;;;;;;5076265;28;20485;-60
2022/10/19 02:50:50;;;;;;;48.20;14.20;;;;;;;;;;5076368;28;20497;-61
2022/10/19 02:53:17;;;;;;;44.43;15.80;;;15.90;99.90;;;;;;5077576;28;20548;-61
2022/10/19 02:55:45;;;;;;;39.20;12.47;;;;;;;;;;5077437;28;20474;-61
2022/10/19 02:58:12;;;;;;;29.60;12.70;;;15.90;99.90;;;;;;5073650;28;20501;-61
2022/10/19 03:00:39;;;;;;;34.47;10.53;;;;;;;;;;5074656;28;21258;-61
2022/10/19 03:03:06;;;;;;;30.30;14.17;;;;;;;;;;5069045;28;20540;-61
2022/10/19 03:05:33;;;;;;;31.20;13.07;;;15.90;99.90;;;;;;5083914;28;20486;-61
2022/10/19 03:08:01;;;;;;;46.77;16.30;;;15.90;99.90;;;;;;5056321;28;20483;-61
2022/10/19 03:10:28;;;;;;;41.33;14.37;;;15.80;99.90;;;;;;5073487;28;20687;-61
2022/10/19 03:12:57;;;;;;;32.30;13.77;;;;;;;;;;5063812;28;20486;-61
2022/10/19 03:15:27;;;;;;;60.53;14.03;;;;;;;;;;5074680;28;20557;-61
2022/10/19 03:17:55;;;;;;;41.27;12.73;;;;;;;;;;5060414;28;20467;-61
2022/10/19 03:20:21;;;;;;;53.60;12.90;;;15.80;99.90;;;;;;5062684;28;21091;-61
2022/10/19 03:22:48;;;;;;;32.60;11.30;;;15.80;99.90;;;;;;5077909;28;20852;-60
2022/10/19 03:25:17;;;;;;;48.73;12.67;;;15.70;99.90;;;;;;5076536;28;20470;-60
2022/10/19 03:27:43;;;;;;;37.87;11.83;;;15.70;99.90;;;;;;5073614;28;20867;-61
2022/10/19 03:30:11;;;;;;;49.83;15.80;;;15.60;99.90;;;;;;5069671;28;20494;-61
2022/10/19 03:32:37;;;;;;;43.23;14.20;;;15.60;99.90;;;;;;5075600;28;20568;-62
2022/10/19 03:35:05;;;;;;;71.10;17.60;;;15.50;99.90;;;;;;5073332;28;20474;-61
2022/10/19 03:37:32;;;;;;;41.80;12.83;;;;;;;;;;5067263;28;20517;-61
2022/10/19 03:39:59;;;;;;;41.27;13.80;;;;;;;;;;5075461;28;20831;-61
2022/10/19 03:42:28;;;;;;;49.33;14.40;;;;;;;;;;5074705;28;20501;-61
2022/10/19 03:44:54;;;;;;;40.33;14.50;;;15.20;99.90;;;;;;5071447;28;20858;-62
2022/10/19 03:47:21;;;;;;;58.83;15.30;;;15.20;99.90;;;;;;5067656;28;20474;-61
2022/10/19 03:49:49;;;;;;;35.40;12.07;;;15.20;99.90;;;;;;5074642;28;20588;-61
2022/10/19 03:52:16;;;;;;;53.63;16.50;;;15.10;99.90;;;;;;5062790;28;20839;-62
2022/10/19 03:54:43;;;;;;;50.53;13.40;;;15.00;99.90;;;;;;5081285;28;20477;-61
2022/10/19 03:57:09;;;;;;;47.83;19.10;;;15.10;99.90;;;;;;5062073;28;20477;-61
2022/10/19 03:59:38;;;;;;;47.30;15.03;;;15.10;99.90;;;;;;5075112;28;20616;-61
2022/10/19 04:02:04;;;;;;;52.60;17.50;;;15.10;99.90;;;;;;5074656;28;20467;-61
2022/10/19 04:04:31;;;;;;;55.30;15.70;;;;;;;;;;5074140;28;20474;-61
2022/10/19 04:06:58;;;;;;;63.17;21.20;;;15.20;99.90;;;;;;5061047;28;20467;-61
2022/10/19 04:09:25;;;;;;;46.77;18.10;;;15.10;99.90;;;;;;5072457;28;20489;-61
2022/10/19 04:11:52;;;;;;;43.50;17.10;;;15.10;99.90;;;;;;5072162;28;20478;-60
2022/10/19 04:14:20;;;;;;;52.30;19.13;;;15.20;99.90;;;;;;5069888;28;20486;-62
2022/10/19 04:16:48;;;;;;;50.13;16.73;;;15.30;99.90;;;;;;5073488;28;20514;-61
2022/10/19 04:19:16;;;;;;;54.63;19.43;;;15.30;99.90;;;;;;5073571;28;20921;-61
2022/10/19 04:21:43;;;;;;;42.80;16.73;;;;;;;;;;5070852;28;20984;-61
2022/10/19 04:24:11;;;;;;;70.83;23.10;;;;;;;;;;5068470;28;20919;-60
2022/10/19 04:26:40;;;;;;;53.30;20.40;;;;;;;;;;5070313;28;20474;-61
2022/10/19 04:29:07;;;;;;;61.93;23.33;;;15.50;99.90;;;;;;5074402;28;20505;-61
2022/10/19 04:31:34;;;;;;;51.47;19.40;;;;;;;;;;5073421;28;20751;-61
2022/10/19 04:34:02;;;;;;;65.83;24.37;;;;;;;;;;5073765;28;20481;-61
2022/10/19 04:36:29;;;;;;;63.53;19.70;;;;;;;;;;5072566;28;20505;-61
2022/10/19 04:38:56;;;;;;;63.97;21.80;;;15.70;99.90;;;;;;5070963;28;21034;-61
2022/10/19 04:41:23;;;;;;;52.67;20.10;;;15.80;99.90;;;;;;5071758;28;20481;-61
2022/10/19 04:43:50;;;;;;;48.53;19.30;;;;;;;;;;5071254;28;20547;-61
2022/10/19 04:46:18;;;;;;;65.27;22.00;;;;;;;;;;5069622;28;20616;-62
2022/10/19 04:48:45;;;;;;;62.47;20.47;;;16.00;99.90;;;;;;5073430;28;20478;-61
2022/10/19 04:51:15;;;;;;;58.93;21.70;;;;;;;;;;5068458;28;20478;-61
2022/10/19 04:53:42;;;;;;;53.03;19.50;;;16.00;99.90;;;;;;5052276;28;20517;-61
2022/10/19 04:56:12;;;;;;;71.17;24.60;;;16.10;99.90;;;;;;5069764;28;20467;-61
2022/10/19 04:58:39;;;;;;;60.30;18.80;;;16.10;99.90;;;;;;5070710;28;20471;-61
2022/10/19 05:01:10;;;;;;;81.57;26.40;;;16.20;99.90;;;;;;5072331;28;20489;-62
2022/10/19 05:03:38;;;;;;;53.27;19.23;;;16.20;99.90;;;;;;5069644;28;20466;-62
2022/10/19 05:06:05;;;;;;;69.93;22.63;;;16.20;99.90;;;;;;5071655;28;20493;-62
2022/10/19 05:08:34;;;;;;;50.87;17.00;;;;;;;;;;5073367;28;20474;-62
2022/10/19 05:11:02;;;;;;;65.20;23.60;;;16.30;99.90;;;;;;5072100;28;20497;-62
2022/10/19 05:13:29;;;;;;;62.60;20.23;;;16.30;99.90;;;;;;5072382;28;20478;-62
2022/10/19 05:15:57;;;;;;;56.30;20.57;;;16.30;99.90;;;;;;5071238;28;20930;-62
2022/10/19 05:18:23;;;;;;;58.67;19.90;;;16.40;99.90;;;;;;5067408;28;20491;-63
2022/10/19 05:20:50;;;;;;;57.53;17.53;;;16.70;99.90;;;;;;5074060;28;20479;-61
2022/10/19 05:23:17;;;;;;;53.63;19.10;;;16.50;99.90;;;;;;5072924;28;20478;-62
2022/10/19 05:25:45;;;;;;;54.77;18.50;;;16.50;99.90;;;;;;5072980;28;20470;-63
2022/10/19 05:28:12;;;;;;;66.57;20.20;;;;;;;;;;5068161;28;20474;-62
2022/10/19 05:30:39;;;;;;;60.77;20.00;;;16.50;99.90;;;;;;5069643;28;20552;-62
2022/10/19 05:33:06;;;;;;;70.60;23.93;;;16.60;99.90;;;;;;5071575;28;20479;-62
2022/10/19 05:35:33;;;;;;;71.53;22.03;;;;;;;;;;5069244;28;20445;-62
2022/10/19 05:38:00;;;;;;;70.00;24.60;;;;;;;;;;5070219;28;20474;-62
2022/10/19 05:40:26;;;;;;;47.77;19.10;;;16.60;99.90;;;;;;5078127;28;20490;-62
2022/10/19 05:42:54;;;;;;;61.97;18.60;;;16.50;99.90;;;;;;5073410;28;20489;-62
2022/10/19 05:45:21;;;;;;;62.50;22.77;;;;;;;;;;5066325;28;20654;-62
2022/10/19 05:47:48;;;;;;;73.57;23.00;;;16.50;99.90;;;;;;5070349;28;21173;-62
2022/10/19 05:50:15;;;;;;;78.70;21.30;;;16.40;99.90;;;;;;5068214;28;20482;-62
2022/10/19 05:52:42;;;;;;;76.47;22.97;;;;;;;;;;5076305;28;20509;-62
2022/10/19 05:55:09;;;;;;;67.07;24.47;;;16.40;99.90;;;;;;5072213;28;20498;-62
2022/10/19 05:57:36;;;;;;;64.37;19.40;;;16.30;99.90;;;;;;5071264;28;20470;-63
2022/10/19 06:00:05;;;;;;;83.03;23.03;;;16.40;99.90;;;;;;5070278;28;20493;-62
2022/10/19 06:02:32;;;;;;;76.00;24.67;;;16.40;99.90;;;;;;5072006;28;20479;-63
2022/10/19 06:04:58;;;;;;;65.13;24.03;;;16.40;99.90;;;;;;5072149;28;20474;-62
2022/10/19 06:07:25;;;;;;;77.43;25.17;;;16.40;99.90;;;;;;5070428;28;20494;-62
2022/10/19 06:09:52;;;;;;;61.33;21.43;;;16.40;99.90;;;;;;5073383;28;20478;-63
2022/10/19 06:12:19;;;;;;;70.20;22.67;;;16.50;99.90;;;;;;5075728;28;20886;-62
2022/10/19 06:14:46;;;;;;;59.23;22.00;;;16.50;99.90;;;;;;5076083;28;20881;-62
2022/10/19 06:17:15;;;;;;;59.83;21.93;;;16.60;99.90;;;;;;5071523;28;20493;-62
2022/10/19 06:19:42;;;;;;;92.27;21.47;;;;;;;;;;5075028;28;20474;-62
2022/10/19 06:22:08;;;;;;;62.20;23.10;;;16.60;99.90;;;;;;5075811;28;20505;-63
2022/10/19 06:24:35;;;;;;;76.07;21.77;;;16.70;99.90;;;;;;5074348;28;20507;-63
2022/10/19 06:27:02;;;;;;;95.63;25.00;;;;;;;;;;5074301;28;21357;-62
2022/10/19 06:29:29;;;;;;;83.07;22.90;;;;;;;;;;5076323;28;20482;-62
2022/10/19 06:31:58;;;;;;;62.07;21.20;;;16.80;99.90;;;;;;5074797;28;20493;-62
2022/10/19 06:34:26;;;;;;;66.50;20.97;;;16.80;99.90;;;;;;5075703;28;21007;-63
2022/10/19 06:36:53;;;;;;;87.27;20.83;;;;;;;;;;5063031;28;20486;-62
2022/10/19 06:39:20;;;;;;;102.23;23.30;;;;;;;;;;5073117;28;20486;-62
2022/10/19 06:41:47;;;;;;;120.83;23.77;;;;;;;;;;5074633;28;20489;-62
2022/10/19 06:44:14;;;;;;;93.17;22.23;;;;;;;;;;5070153;28;20509;-62
2022/10/19 06:46:41;;;;;;;54.73;17.90;;;17.00;99.90;;;;;;5074561;28;21014;-62
2022/10/19 06:49:12;;;;;;;63.53;19.37;;;17.00;99.90;;;;;;5076436;28;20474;-62
2022/10/19 06:51:40;;;;;;;49.93;17.57;;;17.10;99.90;;;;;;5075724;28;20453;-62
2022/10/19 06:54:07;;;;;;;53.03;20.07;;;;;;;;;;5064553;28;20505;-62
2022/10/19 06:56:34;;;;;;;54.50;17.13;;;;;;;;;;5073808;28;20756;-62
2022/10/19 06:59:01;;;;;;;50.80;19.67;;;17.10;99.90;;;;;;5075775;28;20697;-62
2022/10/19 07:01:28;;;;;;;49.57;18.30;;;17.20;99.90;;;;;;5075959;28;20475;-63
2022/10/19 07:03:55;;;;;;;66.07;20.07;;;17.20;99.90;;;;;;5073834;28;20751;-63
2022/10/19 07:06:22;;;;;;;49.97;18.00;;;17.30;99.90;;;;;;5070816;28;20590;-62
2022/10/19 07:08:50;;;;;;;51.40;21.40;;;17.30;99.90;;;;;;5074854;28;20490;-62
2022/10/19 07:11:21;;;;;;;48.47;18.30;;;17.40;99.90;;;;;;5074138;28;20837;-62
2022/10/19 07:13:48;;;;;;;54.00;18.67;;;17.40;99.90;;;;;;5072669;28;20505;-62
2022/10/19 07:16:16;;;;;;;51.23;19.23;;;17.40;99.90;;;;;;5073032;28;20470;-63
2022/10/19 07:18:43;;;;;;;40.73;18.27;;;16.90;99.90;;;;;;5075815;28;20848;-62
2022/10/19 07:21:11;;;;;;;60.00;21.83;;;17.50;99.90;;;;;;5070725;28;20823;-62
2022/10/19 07:23:40;;;;;;;35.43;16.67;;;17.50;99.90;;;;;;5080236;28;20477;-62
2022/10/19 07:26:10;;;;;;;68.30;26.97;;;;;;;;;;5053163;28;20705;-63
2022/10/19 07:28:38;;;;;;;52.90;19.03;;;17.50;99.90;;;;;;5069584;28;20493;-63
2022/10/19 07:31:07;;;;;;;77.87;28.33;;;17.60;99.90;;;;;;5059617;28;20676;-62
2022/10/19 07:33:33;;;;;;;56.37;26.23;;;17.90;99.90;;;;;;5063827;28;21255;-62
2022/10/19 07:36:01;;;;;;;62.63;25.53;;;18.20;99.90;;;;;;5072292;28;22250;-62
2022/10/19 07:38:28;;;;;;;50.07;18.77;;;;;;;;;;5068492;28;20482;-62
2022/10/19 07:41:04;;;;;;;43.97;18.60;;;18.60;99.90;;;;;;5069432;28;20564;-63
2022/10/19 07:43:33;;;;;;;35.80;15.57;;;;;;;;;;5070805;28;20565;-62
2022/10/19 07:46:01;;;;;;;50.77;22.87;;;;;;;;;;5070012;28;21006;-62
2022/10/19 07:48:28;;;;;;;52.27;17.90;;;;;;;;;;5062175;28;20841;-63
2022/10/19 07:50:55;;;;;;;42.03;19.07;;;18.70;99.90;;;;;;5067973;28;20910;-63
2022/10/19 07:53:22;;;;;;;37.57;17.73;;;18.70;99.90;;;;;;5079895;28;20479;-63
2022/10/19 07:55:49;;;;;;;41.77;17.33;;;18.60;99.90;;;;;;5067199;28;20449;-62
2022/10/19 07:58:16;;;;;;;34.80;16.23;;;18.60;99.90;;;;;;5068572;28;20453;-62
2022/10/19 08:00:44;;;;;;;33.00;16.80;;;19.40;99.90;;;;;;5071192;28;20489;-63
2022/10/19 08:03:11;;;;;;;50.33;18.63;;;18.40;99.90;;;;;;5070631;28;20998;-63
2022/10/19 08:05:38;;;;;;;38.90;17.33;;;18.30;99.90;;;;;;5069662;28;20478;-63
2022/10/19 08:08:05;;;;;;;64.93;21.97;;;;;;;;;;5068305;28;20811;-63
2022/10/19 08:10:32;;;;;;;56.13;17.50;;;;;;;;;;5069854;28;20778;-62
2022/10/19 08:12:59;;;;;;;42.10;16.27;;;;;;;;;;5070309;28;20463;-62
2022/10/19 08:15:27;;;;;;;45.27;16.90;;;18.20;99.90;;;;;;5071075;28;20452;-63
2022/10/19 08:17:55;;;;;;;69.57;18.13;;;18.20;99.90;;;;;;5065687;28;20474;-62
2022/10/19 08:20:22;;;;;;;42.87;14.40;;;18.20;99.90;;;;;;5070800;28;20475;-61
2022/10/19 08:22:48;;;;;;;26.43;11.30;;;18.10;99.90;;;;;;5070049;28;21040;-62
2022/10/19 08:25:16;;;;;;;41.23;14.07;;;;;;;;;;5069156;28;21028;-62
2022/10/19 08:27:43;;;;;;;40.57;12.70;;;;;;;;;;5065965;28;20701;-62
2022/10/19 08:30:10;;;;;;;32.63;15.60;;;;;;;;;;5057419;28;20779;-62
2022/10/19 08:32:37;;;;;;;38.73;13.20;;;;;;;;;;5068485;28;20463;-61
2022/10/19 08:35:06;;;;;;;35.97;13.33;;;18.30;99.90;;;;;;5064794;28;20475;-62
2022/10/19 08:37:33;;;;;;;25.93;11.70;;;;;;;;;;5051238;28;20486;-62
2022/10/19 08:40:00;;;;;;;34.97;16.23;;;;;;;;;;5077803;28;20474;-61
2022/10/19 08:42:36;;;;;;;40.07;12.27;;;18.40;99.90;;;;;;5066036;28;20457;-61
2022/10/19 08:45:23;;;;;;;46.47;17.03;;;18.30;99.90;;;;;;5070154;28;20477;-62
2022/10/19 08:47:58;;;;;;;37.10;14.03;;;18.40;99.90;;;;;;5065294;28;20505;-62
2022/10/19 08:50:33;;;;;;;37.63;14.63;;;18.30;99.90;;;;;;5070105;28;20489;-61
2022/10/19 08:53:03;;;;;;;34.60;14.70;;;18.40;99.90;;;;;;5069102;28;20485;-61
2022/10/19 08:55:41;;;;;;;33.30;14.77;;;18.40;99.90;;;;;;5067699;28;20477;-61
2022/10/19 08:58:22;;;;;;;44.17;16.13;;;18.50;99.90;;;;;;5071994;28;20466;-62
2022/10/19 09:00:54;;;;;;;61.30;15.70;;;18.50;99.90;;;;;;5058596;28;20921;-62
2022/10/19 09:03:25;;;;;;;108.60;18.10;;;18.60;99.90;;;;;;5068678;28;20482;-62
2022/10/19 09:06:01;;;;;;;100.80;17.70;;;18.70;99.90;;;;;;5058521;28;20909;-61
2022/10/19 09:08:28;;;;;;;52.13;13.30;;;18.70;99.90;;;;;;5080622;28;20693;-62
2022/10/19 09:10:56;;;;;;;32.87;12.90;;;;;;;;;;5056684;28;20479;-62
2022/10/19 09:13:35;;;;;;;40.87;14.10;;;;;;;;;;5065493;28;20449;-62
2022/10/19 09:16:03;;;;;;;43.97;11.90;;;;;;;;;;5070776;28;20534;-61
2022/10/19 09:18:31;;;;;;;42.20;13.57;;;;;;;;;;5068191;28;20474;-62
2022/10/19 09:21:04;;;;;;;72.20;16.20;;;18.70;99.90;;;;;;5068158;28;20640;-62
2022/10/19 09:23:37;;;;;;;34.83;12.87;;;18.60;99.90;;;;;;5065572;28;20722;-62
2022/10/19 09:26:06;;;;;;;54.90;17.80;;;;;;;;;;5064635;28;20499;-62
2022/10/19 09:28:39;;;;;;;40.93;13.77;;;;;;;;;;5068862;28;20482;-62
2022/10/19 09:31:07;;;;;;;49.43;17.87;;;;;;;;;;5066685;28;21343;-62
2022/10/19 09:33:39;;;;;;;35.70;13.67;;;18.30;99.90;;;;;;5069394;28;20919;-62
2022/10/19 09:36:08;;;;;;;50.67;14.33;;;18.30;99.90;;;;;;5067346;28;20856;-62
2022/10/19 09:38:35;;;;;;;30.70;11.90;;;;;;;;;;5068879;28;20472;-61
2022/10/19 09:41:15;;;;;;;39.57;16.50;;;18.30;99.90;;;;;;5060049;28;20489;-62
2022/10/19 09:43:52;;;;;;;26.70;11.93;;;18.40;99.90;;;;;;5063846;28;20908;-62
2022/10/19 09:46:39;;;;;;;50.57;17.93;;;18.40;99.90;;;;;;5058471;28;20469;-62
2022/10/19 09:49:06;;;;;;;39.40;16.60;;;18.40;99.90;;;;;;5072856;27;20448;-62
2022/10/19 09:51:41;;;;;;;51.00;13.23;;;;;;;;;;5072922;27;20478;-62
2022/10/19 09:54:23;;;;;;;77.93;20.40;;;;;;;;;;5071576;27;20477;-62
2022/10/19 09:56:54;;;;;;;71.87;19.67;;;18.50;99.90;;;;;;5068846;28;20460;-62
2022/10/19 09:59:22;;;;;;;86.23;19.77;;;18.50;99.90;;;;;;5072454;27;20560;-62
2022/10/19 10:01:59;;;;;;;50.17;16.63;;;;;;;;;;5060171;28;20563;-63
2022/10/19 10:04:26;;;;;;;38.37;11.70;;;;;;;;;;5061387;28;20991;-63
2022/10/19 10:06:55;;;;;;;36.53;15.53;;;;;;;;;;5067397;27;20473;-61
2022/10/19 10:09:24;;;;;;;34.47;14.00;;;;;;;;;;5072537;27;20798;-62
2022/10/19 10:11:52;;;;;;;39.60;14.23;;;;;;;;;;5056445;28;20547;-62
2022/10/19 10:14:23;;;;;;;40.40;12.23;;;19.90;99.90;;;;;;5068566;28;20455;-62
2022/10/19 10:16:54;;;;;;;27.10;10.47;;;;;;;;;;5068051;28;20527;-62
2022/10/19 10:19:26;;;;;;;31.77;11.50;;;;;;;;;;5068995;27;20478;-62
2022/10/19 10:21:56;;;;;;;38.37;12.77;;;;;;;;;;5068426;27;20448;-63
2022/10/19 10:24:25;;;;;;;32.97;13.10;;;20.40;99.90;;;;;;5079100;27;20684;-63
2022/10/19 10:26:53;;;;;;;36.47;15.10;;;;;;;;;;5068657;28;20996;-63
2022/10/19 10:29:21;;;;;;;38.63;14.00;;;;;;;;;;5069878;28;20459;-64
2022/10/19 10:31:50;;;;;;;35.03;10.60;;;;;;;;;;5074385;28;20466;-64
2022/10/19 10:34:25;;;;;;;31.57;10.73;;;20.80;99.90;;;;;;5075426;27;20449;-64
2022/10/19 10:36:56;;;;;;;59.67;14.43;;;20.60;99.90;;;;;;5070683;28;20457;-64
2022/10/19 10:39:25;;;;;;;54.33;14.37;;;20.80;99.90;;;;;;5075916;27;20480;-63
2022/10/19 10:41:53;;;;;;;67.33;17.27;;;21.30;99.90;;;;;;5073135;27;21397;-64
2022/10/19 10:44:22;;;;;;;56.93;12.20;;;;;;;;;;5075145;28;20477;-63
2022/10/19 10:46:55;;;;;;;24.30;8.87;;;21.60;99.90;;;;;;5072875;27;20458;-64
2022/10/19 10:49:25;;;;;;;27.83;8.60;;;;;;;;;;5070729;27;20846;-63
2022/10/19 10:51:57;;;;;;;29.03;11.53;;;21.50;99.90;;;;;;5076863;28;20861;-63
2022/10/19 10:54:26;;;;;;;18.53;8.23;;;21.70;99.90;;;;;;5080891;28;20470;-64
2022/10/19 10:57:11;;;;;;;31.17;10.70;;;22.00;99.90;;;;;;5074663;28;20482;-63
2022/10/19 10:59:43;;;;;;;29.83;9.80;;;22.60;99.90;;;;;;5072282;28;20542;-63
2022/10/19 11:02:15;;;;;;;26.23;8.00;;;;;;;;;;5070685;28;20873;-63
2022/10/19 11:04:45;;;;;;;29.63;9.23;;;;;;;;;;5069433;28;20486;-64
2022/10/19 11:07:17;;;;;;;44.53;16.00;;;;;;;;;;5053236;28;20466;-63
2022/10/19 11:09:50;;;;;;;38.70;10.80;;;22.20;99.90;;;;;;5070143;28;21025;-64
2022/10/19 11:12:18;;;;;;;66.73;13.20;;;;;;;;;;5070438;28;20893;-63
2022/10/19 11:14:47;;;;;;;59.57;13.43;;;;;;;;;;5063240;28;20497;-63
2022/10/19 11:17:18;;;;;;;64.40;15.70;;;22.00;99.90;;;;;;5062231;28;20486;-65
2022/10/19 11:19:45;;;;;;;25.57;8.47;;;;;;;;;;5079968;28;20457;-64
2022/10/19 11:22:19;;;;;;;27.17;9.53;;;;;;;;;;5070462;28;20466;-64
2022/10/19 11:24:52;;;;;;;31.33;8.60;;;;;;;;;;5065547;28;20552;-64
2022/10/19 11:27:25;;;;;;;32.93;8.27;;;;;;;;;;5071718;28;20474;-64
2022/10/19 11:30:03;;;;;;;25.57;9.00;;;21.80;99.90;;;;;;5072075;28;20485;-64
2022/10/19 11:32:39;;;;;;;29.57;7.90;;;22.00;99.90;;;;;;5073246;28;20488;-63
2022/10/19 11:35:21;;;;;;;19.97;10.00;;;;;;;;;;5055535;28;20858;-64
2022/10/19 11:37:55;;;;;;;33.87;8.07;;;;;;;;;;5074324;28;20551;-64
2022/10/19 11:40:30;;;;;;;21.67;9.40;;;22.20;99.90;;;;;;5070019;28;20456;-64
2022/10/19 11:43:05;;;;;;;47.20;11.97;;;22.10;99.90;;;;;;5066076;28;20478;-64
2022/10/19 11:45:45;;;;;;;26.57;10.40;;;22.10;99.90;;;;;;5070792;28;20539;-63
2022/10/19 11:48:28;;;;;;;33.80;10.00;;;22.10;99.90;;;;;;5066837;28;20997;-65
2022/10/19 11:51:02;;;;;;;26.53;10.40;;;22.00;99.90;;;;;;5068547;28;20486;-64
2022/10/19 11:53:35;;;;;;;27.73;9.10;;;;;;;;;;5065931;28;20798;-64
2022/10/19 11:56:06;;;;;;;35.40;10.40;;;;;;;;;;5062221;27;20485;-64
2022/10/19 11:58:42;;;;;;;29.37;10.90;;;;;;;;;;5078280;28;20474;-64
2022/10/19 12:01:20;;;;;;;24.60;9.07;;;22.00;99.90;;;;;;5068170;28;21417;-64
2022/10/19 12:04:50;;;;;;;15.30;7.20;;;22.10;99.90;;;;;;5058702;28;20538;-64
2022/10/19 12:07:27;;;;;;;23.93;7.73;;;;;;;;;;4918965;28;20490;-65
2022/10/19 12:10:01;;;;;;;26.07;9.77;;;;;;;;;;5003781;28;20477;-63
2022/10/19 12:12:31;;;;;;;24.43;8.87;;;;;;;;;;5037381;28;20453;-64
2022/10/19 12:15:20;;;;;;;37.27;12.20;;;22.20;99.60;;;;;;5067520;28;21975;-64
2022/10/19 12:17:50;;;;;;;28.03;7.67;;;22.10;99.50;;;;;;5067490;28;20474;-64
2022/10/19 12:20:20;;;;;;;27.57;8.37;;;;;;;;;;5069107;28;21042;-64
2022/10/19 12:22:48;;;;;;;23.43;7.27;;;;;;;;;;5069081;28;20680;-63
2022/10/19 12:25:18;;;;;;;22.30;7.27;;;21.90;99.90;;;;;;5061257;28;20552;-64
2022/10/19 12:27:47;;;;;;;19.97;7.10;;;22.00;99.90;;;;;;5070848;28;20477;-64
2022/10/19 12:30:16;;;;;;;21.17;6.90;;;22.00;99.80;;;;;;5066333;28;20739;-64
2022/10/19 12:32:52;;;;;;;23.53;6.67;;;21.80;99.30;;;;;;5069856;28;20490;-63
2022/10/19 12:35:27;;;;;;;29.30;7.60;;;;;;;;;;5067988;28;20466;-64
2022/10/19 12:37:59;;;;;;;21.63;6.77;;;21.70;99.90;;;;;;5065884;28;20980;-63
2022/10/19 12:40:32;;;;;;;26.50;6.80;;;21.70;99.70;;;;;;5070175;28;20486;-65
2022/10/19 12:43:03;;;;;;;28.17;6.80;;;;;;;;;;5067528;28;21091;-63
2022/10/19 12:45:33;;;;;;;23.80;7.67;;;21.50;99.10;;;;;;5068735;28;20442;-64
2022/10/19 12:48:23;;;;;;;31.57;7.87;;;21.60;99.90;;;;;;5064873;28;20931;-64
2022/10/19 12:51:20;;;;;;;17.50;5.47;;;;;;;;;;5054512;28;20457;-63
2022/10/19 12:53:48;;;;;;;17.63;5.50;;;;;;;;;;5058152;28;21000;-64
2022/10/19 12:56:25;;;;;;;24.87;5.90;;;21.50;99.90;;;;;;5061051;28;20470;-63
2022/10/19 12:58:56;;;;;;;18.23;5.37;;;21.50;99.80;;;;;;5060881;28;21038;-63
2022/10/19 13:01:25;;;;;;;13.10;5.20;;;;;;;;;;5070054;28;20806;-64
2022/10/19 13:04:07;;;;;;;30.07;5.90;;;21.70;99.00;;;;;;5069126;28;20481;-63
2022/10/19 13:06:35;;;;;;;15.27;5.40;;;;;;;;;;5063264;28;20486;-63
2022/10/19 13:09:05;;;;;;;21.93;5.70;;;21.60;99.40;;;;;;5066273;28;20483;-64
2022/10/19 13:11:34;;;;;;;24.30;5.60;;;21.50;98.90;;;;;;5066431;28;20478;-64
2022/10/19 13:14:03;;;;;;;19.37;5.23;;;21.60;99.40;;;;;;5067847;28;20845;-64
2022/10/19 13:17:01;;;;;;;16.93;5.60;;;21.60;99.30;;;;;;5065049;28;21175;-63
2022/10/19 13:19:28;;;;;;;15.73;5.50;;;21.40;98.30;;;;;;5057072;28;20472;-64
2022/10/19 13:22:25;;;;;;;17.00;4.23;;;21.20;98.70;;;;;;5057600;28;20478;-64
2022/10/19 13:25:22;;;;;;;22.17;6.10;;;21.30;99.40;;;;;;5066522;28;20453;-64